AFR57AU LFPG-LFRS
Flight info
| Callsign | AFR57AU |
|---|---|
| Flight time | 0h 56m |
| Altitude | 27000 |
| Route | LGL UT190 GODIX UN872 DIDAK A5 VALAX |
| Aircraft | A320/M-SDE2E3FGIJ1RWY/HB1 |
Departure
| Time | 2026-05-07 14:49 |
|---|---|
| Airport | Charles de Gaulle International Airport (LFPG) |
Arrival
| Time | 2026-05-07 15:45 |
|---|---|
| Airport | Nantes Atlantique Airport (LFRS) |
| Time | Latitude | Longitude | Altitude | Speed | Heading |
|---|---|---|---|---|---|
| 2026-05-07 14:13 | 49.00259 | 2.58029 | 354 ft | 0 kts | 185° |
| 2026-05-07 14:39 | 49.00273 | 2.58031 | 361 ft | 4 kts | 192° |
| 2026-05-07 14:39 | 49.00297 | 2.58045 | 363 ft | 4 kts | 216° |
| 2026-05-07 14:39 | 49.00316 | 2.58073 | 360 ft | 4 kts | 242° |
| 2026-05-07 14:40 | 49.00325 | 2.58111 | 357 ft | 4 kts | 261° |
| 2026-05-07 14:40 | 49.00328 | 2.58151 | 354 ft | 4 kts | 264° |
| 2026-05-07 14:40 | 49.00331 | 2.58192 | 354 ft | 4 kts | 264° |
| 2026-05-07 14:40 | 49.00334 | 2.58233 | 363 ft | 4 kts | 262° |
| 2026-05-07 14:41 | 49.00338 | 2.58274 | 361 ft | 4 kts | 257° |
| 2026-05-07 14:41 | 49.00345 | 2.58310 | 358 ft | 2 kts | 242° |
| 2026-05-07 14:41 | 49.00340 | 2.58301 | 362 ft | 4 kts | 223° |
| 2026-05-07 14:41 | 49.00315 | 2.58296 | 360 ft | 4 kts | 179° |
| 2026-05-07 14:42 | 49.00294 | 2.58299 | 354 ft | 0 kts | 175° |
| 2026-05-07 14:44 | 49.00272 | 2.58300 | 357 ft | 12 kts | 178° |
| 2026-05-07 14:44 | 49.00179 | 2.58308 | 354 ft | 13 kts | 176° |
| 2026-05-07 14:44 | 49.00098 | 2.58317 | 354 ft | 11 kts | 176° |
| 2026-05-07 14:44 | 49.00016 | 2.58310 | 354 ft | 15 kts | 194° |
| 2026-05-07 14:45 | 48.99921 | 2.58228 | 357 ft | 16 kts | 253° |
| 2026-05-07 14:45 | 48.99907 | 2.58015 | 354 ft | 22 kts | 265° |
| 2026-05-07 14:45 | 48.99894 | 2.57770 | 354 ft | 24 kts | 265° |
| 2026-05-07 14:45 | 48.99881 | 2.57512 | 354 ft | 25 kts | 265° |
| 2026-05-07 14:46 | 48.99866 | 2.57233 | 354 ft | 27 kts | 265° |
| 2026-05-07 14:46 | 48.99849 | 2.56944 | 360 ft | 28 kts | 265° |
| 2026-05-07 14:46 | 48.99833 | 2.56648 | 354 ft | 28 kts | 265° |
| 2026-05-07 14:46 | 48.99817 | 2.56344 | 354 ft | 29 kts | 265° |
| 2026-05-07 14:47 | 48.99801 | 2.56054 | 358 ft | 24 kts | 266° |
| 2026-05-07 14:47 | 48.99790 | 2.55888 | 354 ft | 20 kts | 253° |
| 2026-05-07 14:47 | 48.99718 | 2.55813 | 354 ft | 12 kts | 177° |
| 2026-05-07 14:47 | 48.99640 | 2.55826 | 354 ft | 11 kts | 175° |
| 2026-05-07 14:48 | 48.99604 | 2.55888 | 353 ft | 9 kts | 91° |
| 2026-05-07 14:48 | 48.99611 | 2.56016 | 354 ft | 26 kts | 85° |
| 2026-05-07 14:48 | 48.99646 | 2.56680 | 356 ft | 96 kts | 85° |
| 2026-05-07 14:48 | 48.99715 | 2.57989 | 362 ft | 149 kts | 85° |
| 2026-05-07 14:49 | 48.99798 | 2.59657 | 756 ft | 161 kts | 85° |
| 2026-05-07 14:49 | 48.99882 | 2.61383 | 1468 ft | 162 kts | 85° |
| 2026-05-07 14:49 | 48.99968 | 2.63101 | 2114 ft | 165 kts | 85° |
| 2026-05-07 14:49 | 49.00064 | 2.64948 | 2416 ft | 190 kts | 85° |
| 2026-05-07 14:50 | 49.00177 | 2.67063 | 2842 ft | 211 kts | 85° |
| 2026-05-07 14:50 | 49.00304 | 2.69417 | 3284 ft | 235 kts | 85° |
| 2026-05-07 14:50 | 49.00445 | 2.72021 | 3782 ft | 256 kts | 85° |
| 2026-05-07 14:50 | 49.00592 | 2.74775 | 4621 ft | 264 kts | 85° |
| 2026-05-07 14:51 | 49.00728 | 2.77584 | 5528 ft | 268 kts | 90° |
| 2026-05-07 14:51 | 49.00541 | 2.80421 | 6451 ft | 271 kts | 99° |
| 2026-05-07 14:51 | 49.00250 | 2.83227 | 7309 ft | 274 kts | 100° |
| 2026-05-07 14:51 | 48.99927 | 2.86116 | 8163 ft | 279 kts | 101° |
| 2026-05-07 14:52 | 48.99593 | 2.89049 | 8993 ft | 284 kts | 101° |
| 2026-05-07 14:52 | 48.99258 | 2.92045 | 9833 ft | 289 kts | 100° |
| 2026-05-07 14:52 | 48.98922 | 2.95119 | 10364 ft | 305 kts | 100° |
| 2026-05-07 14:52 | 48.98299 | 2.98295 | 10759 ft | 320 kts | 118° |
| 2026-05-07 14:53 | 48.96986 | 3.00973 | 11415 ft | 325 kts | 139° |
| 2026-05-07 14:53 | 48.95083 | 3.02822 | 12153 ft | 327 kts | 160° |
| 2026-05-07 14:53 | 48.92858 | 3.03491 | 12885 ft | 329 kts | 182° |
| 2026-05-07 14:53 | 48.90620 | 3.02866 | 13627 ft | 330 kts | 203° |
| 2026-05-07 14:54 | 48.88679 | 3.01033 | 14313 ft | 331 kts | 225° |
| 2026-05-07 14:54 | 48.87317 | 2.98241 | 14973 ft | 332 kts | 245° |
| 2026-05-07 14:54 | 48.86840 | 2.96153 | 15396 ft | 333 kts | 257° |
| 2026-05-07 14:54 | 48.86459 | 2.93192 | 15985 ft | 335 kts | 259° |
| 2026-05-07 14:55 | 48.86047 | 2.89690 | 16684 ft | 338 kts | 260° |
| 2026-05-07 14:55 | 48.85645 | 2.86152 | 17347 ft | 341 kts | 260° |
| 2026-05-07 14:55 | 48.85244 | 2.82591 | 18013 ft | 344 kts | 260° |
| 2026-05-07 14:55 | 48.84836 | 2.78991 | 18631 ft | 347 kts | 260° |
| 2026-05-07 14:56 | 48.84419 | 2.75369 | 19198 ft | 350 kts | 260° |
| 2026-05-07 14:56 | 48.83992 | 2.71715 | 19770 ft | 353 kts | 259° |
| 2026-05-07 14:56 | 48.83556 | 2.68037 | 20344 ft | 356 kts | 259° |
| 2026-05-07 14:56 | 48.83110 | 2.64320 | 20915 ft | 359 kts | 259° |
| 2026-05-07 14:57 | 48.82661 | 2.60585 | 21475 ft | 361 kts | 259° |
| 2026-05-07 14:57 | 48.82209 | 2.56817 | 22037 ft | 364 kts | 259° |
| 2026-05-07 14:57 | 48.81753 | 2.53025 | 22582 ft | 367 kts | 259° |
| 2026-05-07 14:57 | 48.81294 | 2.49253 | 23139 ft | 370 kts | 259° |
| 2026-05-07 14:58 | 48.80818 | 2.45339 | 23687 ft | 373 kts | 259° |
| 2026-05-07 14:58 | 48.80358 | 2.41538 | 24149 ft | 376 kts | 259° |
| 2026-05-07 14:58 | 48.80099 | 2.37509 | 24623 ft | 379 kts | 269° |
| 2026-05-07 14:58 | 48.80118 | 2.33504 | 25084 ft | 382 kts | 270° |
| 2026-05-07 14:59 | 48.80133 | 2.29448 | 25535 ft | 384 kts | 269° |
| 2026-05-07 14:59 | 48.80141 | 2.25404 | 25976 ft | 386 kts | 269° |
| 2026-05-07 14:59 | 48.80146 | 2.21303 | 26406 ft | 389 kts | 269° |
| 2026-05-07 14:59 | 48.80146 | 2.17195 | 26824 ft | 391 kts | 269° |
| 2026-05-07 15:00 | 48.80145 | 2.13059 | 27025 ft | 392 kts | 269° |
| 2026-05-07 15:00 | 48.80145 | 2.09054 | 27055 ft | 377 kts | 269° |
| 2026-05-07 15:00 | 48.80145 | 2.05122 | 27054 ft | 361 kts | 269° |
| 2026-05-07 15:00 | 48.80144 | 2.01350 | 27058 ft | 354 kts | 269° |
| 2026-05-07 15:01 | 48.80141 | 1.97620 | 27057 ft | 352 kts | 269° |
| 2026-05-07 15:01 | 48.80136 | 1.93964 | 27053 ft | 352 kts | 269° |
| 2026-05-07 15:01 | 48.80129 | 1.90403 | 27055 ft | 351 kts | 269° |
| 2026-05-07 15:01 | 48.80120 | 1.86702 | 27057 ft | 351 kts | 269° |
| 2026-05-07 15:02 | 48.80109 | 1.83000 | 27050 ft | 351 kts | 269° |
| 2026-05-07 15:02 | 48.80097 | 1.79292 | 27051 ft | 351 kts | 269° |
| 2026-05-07 15:02 | 48.80087 | 1.75584 | 27044 ft | 351 kts | 269° |
| 2026-05-07 15:02 | 48.80078 | 1.71883 | 27048 ft | 351 kts | 269° |
| 2026-05-07 15:03 | 48.80065 | 1.68176 | 27042 ft | 351 kts | 269° |
| 2026-05-07 15:03 | 48.80051 | 1.64531 | 27046 ft | 351 kts | 268° |
| 2026-05-07 15:03 | 48.80035 | 1.60834 | 27049 ft | 351 kts | 268° |
| 2026-05-07 15:03 | 48.80016 | 1.57069 | 27054 ft | 351 kts | 268° |
| 2026-05-07 15:04 | 48.79997 | 1.53414 | 27049 ft | 351 kts | 268° |
| 2026-05-07 15:04 | 48.79979 | 1.49711 | 27052 ft | 351 kts | 268° |
| 2026-05-07 15:04 | 48.79957 | 1.46007 | 27046 ft | 351 kts | 268° |
| 2026-05-07 15:04 | 48.79935 | 1.42310 | 27047 ft | 351 kts | 268° |
| 2026-05-07 15:05 | 48.79914 | 1.38604 | 27046 ft | 351 kts | 268° |
| 2026-05-07 15:05 | 48.79894 | 1.34901 | 27047 ft | 351 kts | 268° |
| 2026-05-07 15:05 | 48.79870 | 1.31200 | 27042 ft | 351 kts | 268° |
| 2026-05-07 15:05 | 48.79845 | 1.27492 | 27041 ft | 351 kts | 268° |
| 2026-05-07 15:06 | 48.79816 | 1.23792 | 27045 ft | 351 kts | 268° |
| 2026-05-07 15:06 | 48.79785 | 1.20086 | 27050 ft | 351 kts | 268° |
| 2026-05-07 15:06 | 48.79756 | 1.16380 | 27043 ft | 351 kts | 268° |
| 2026-05-07 15:06 | 48.79728 | 1.12675 | 27040 ft | 351 kts | 268° |
| 2026-05-07 15:07 | 48.79698 | 1.08970 | 27042 ft | 351 kts | 268° |
| 2026-05-07 15:07 | 48.79662 | 1.05270 | 27041 ft | 351 kts | 268° |
| 2026-05-07 15:07 | 48.79625 | 1.01569 | 27038 ft | 351 kts | 268° |
| 2026-05-07 15:07 | 48.79586 | 0.97869 | 27034 ft | 351 kts | 268° |
| 2026-05-07 15:08 | 48.79549 | 0.94173 | 27033 ft | 351 kts | 268° |
| 2026-05-07 15:08 | 48.79512 | 0.90474 | 27035 ft | 351 kts | 268° |
| 2026-05-07 15:08 | 48.79471 | 0.86769 | 27030 ft | 351 kts | 268° |
| 2026-05-07 15:08 | 48.79429 | 0.83067 | 27031 ft | 351 kts | 268° |
| 2026-05-07 15:09 | 48.79389 | 0.79361 | 27029 ft | 351 kts | 268° |
| 2026-05-07 15:09 | 48.79349 | 0.75660 | 27030 ft | 351 kts | 268° |
| 2026-05-07 15:09 | 48.79308 | 0.71956 | 27029 ft | 351 kts | 268° |
| 2026-05-07 15:09 | 48.79263 | 0.68253 | 27029 ft | 351 kts | 268° |
| 2026-05-07 15:10 | 48.79215 | 0.64549 | 27028 ft | 351 kts | 267° |
| 2026-05-07 15:10 | 48.79166 | 0.60848 | 27026 ft | 351 kts | 267° |
| 2026-05-07 15:10 | 48.78921 | 0.57177 | 27025 ft | 350 kts | 256° |
| 2026-05-07 15:10 | 48.78157 | 0.53695 | 27026 ft | 348 kts | 244° |
| 2026-05-07 15:11 | 48.76921 | 0.50548 | 27021 ft | 348 kts | 232° |
| 2026-05-07 15:11 | 48.75270 | 0.47878 | 27015 ft | 348 kts | 222° |
| 2026-05-07 15:11 | 48.73462 | 0.45449 | 27014 ft | 348 kts | 222° |
| 2026-05-07 15:11 | 48.71647 | 0.43011 | 27011 ft | 348 kts | 222° |
| 2026-05-07 15:12 | 48.69836 | 0.40573 | 27012 ft | 349 kts | 222° |
| 2026-05-07 15:12 | 48.68024 | 0.38133 | 27012 ft | 349 kts | 222° |
| 2026-05-07 15:12 | 48.66212 | 0.35696 | 27011 ft | 349 kts | 222° |
| 2026-05-07 15:12 | 48.64393 | 0.33258 | 27008 ft | 349 kts | 222° |
| 2026-05-07 15:13 | 48.62578 | 0.30825 | 27010 ft | 349 kts | 222° |
| 2026-05-07 15:13 | 48.60759 | 0.28388 | 27013 ft | 349 kts | 222° |
| 2026-05-07 15:13 | 48.58968 | 0.25987 | 27013 ft | 349 kts | 222° |
| 2026-05-07 15:13 | 48.57129 | 0.23524 | 27014 ft | 349 kts | 222° |
| 2026-05-07 15:14 | 48.55337 | 0.21129 | 27013 ft | 349 kts | 222° |
| 2026-05-07 15:14 | 48.53518 | 0.18701 | 27013 ft | 349 kts | 222° |
| 2026-05-07 15:14 | 48.51704 | 0.16278 | 27015 ft | 349 kts | 222° |
| 2026-05-07 15:14 | 48.49885 | 0.13854 | 27017 ft | 349 kts | 222° |
| 2026-05-07 15:15 | 48.48067 | 0.11435 | 27016 ft | 349 kts | 222° |
| 2026-05-07 15:15 | 48.46247 | 0.09015 | 27016 ft | 349 kts | 222° |
| 2026-05-07 15:15 | 48.44431 | 0.06602 | 27017 ft | 348 kts | 222° |
| 2026-05-07 15:15 | 48.42610 | 0.04190 | 27016 ft | 348 kts | 222° |
| 2026-05-07 15:16 | 48.40793 | 0.01784 | 27016 ft | 348 kts | 222° |
| 2026-05-07 15:16 | 48.38972 | -0.00624 | 27023 ft | 348 kts | 222° |
| 2026-05-07 15:16 | 48.37154 | -0.03033 | 27024 ft | 348 kts | 223° |
| 2026-05-07 15:16 | 48.35520 | -0.05700 | 27022 ft | 347 kts | 233° |
| 2026-05-07 15:17 | 48.34091 | -0.08622 | 27016 ft | 347 kts | 233° |
| 2026-05-07 15:17 | 48.32654 | -0.11545 | 27019 ft | 347 kts | 233° |
| 2026-05-07 15:17 | 48.31215 | -0.14453 | 27011 ft | 347 kts | 233° |
| 2026-05-07 15:17 | 48.29770 | -0.17364 | 27010 ft | 347 kts | 233° |
| 2026-05-07 15:18 | 48.28327 | -0.20271 | 27013 ft | 347 kts | 233° |
| 2026-05-07 15:18 | 48.26884 | -0.23172 | 27012 ft | 347 kts | 232° |
| 2026-05-07 15:18 | 48.25275 | -0.25861 | 27015 ft | 347 kts | 222° |
| 2026-05-07 15:18 | 48.23429 | -0.28196 | 27012 ft | 347 kts | 220° |
| 2026-05-07 15:19 | 48.21579 | -0.30514 | 27009 ft | 347 kts | 220° |
| 2026-05-07 15:19 | 48.19729 | -0.32834 | 27004 ft | 347 kts | 220° |
| 2026-05-07 15:19 | 48.17878 | -0.35156 | 27004 ft | 347 kts | 220° |
| 2026-05-07 15:19 | 48.16027 | -0.37475 | 27001 ft | 347 kts | 220° |
| 2026-05-07 15:20 | 48.14178 | -0.39790 | 26999 ft | 347 kts | 220° |
| 2026-05-07 15:20 | 48.12351 | -0.42074 | 26999 ft | 347 kts | 220° |
| 2026-05-07 15:20 | 48.10476 | -0.44415 | 27000 ft | 347 kts | 220° |
| 2026-05-07 15:20 | 48.08650 | -0.46690 | 27007 ft | 346 kts | 220° |
| 2026-05-07 15:21 | 48.06794 | -0.49005 | 26801 ft | 347 kts | 220° |
| 2026-05-07 15:21 | 48.04953 | -0.51298 | 26407 ft | 343 kts | 220° |
| 2026-05-07 15:21 | 48.03125 | -0.53572 | 26006 ft | 340 kts | 220° |
| 2026-05-07 15:21 | 48.01320 | -0.55816 | 25604 ft | 337 kts | 220° |
| 2026-05-07 15:22 | 47.99528 | -0.58041 | 25198 ft | 334 kts | 220° |
| 2026-05-07 15:22 | 47.97748 | -0.60251 | 24789 ft | 331 kts | 220° |
| 2026-05-07 15:22 | 47.95984 | -0.62441 | 24368 ft | 329 kts | 220° |
| 2026-05-07 15:22 | 47.94222 | -0.64625 | 23951 ft | 328 kts | 219° |
| 2026-05-07 15:23 | 47.92468 | -0.66791 | 23526 ft | 327 kts | 219° |
| 2026-05-07 15:23 | 47.90725 | -0.68943 | 23066 ft | 325 kts | 219° |
| 2026-05-07 15:23 | 47.88992 | -0.71086 | 22650 ft | 322 kts | 219° |
| 2026-05-07 15:23 | 47.87276 | -0.73209 | 22252 ft | 319 kts | 219° |
| 2026-05-07 15:24 | 47.85574 | -0.75308 | 21846 ft | 317 kts | 219° |
| 2026-05-07 15:24 | 47.83883 | -0.77391 | 21455 ft | 314 kts | 219° |
| 2026-05-07 15:24 | 47.82201 | -0.79463 | 21066 ft | 313 kts | 219° |
| 2026-05-07 15:24 | 47.80531 | -0.81515 | 20675 ft | 311 kts | 219° |
| 2026-05-07 15:25 | 47.78869 | -0.83555 | 20298 ft | 309 kts | 219° |
| 2026-05-07 15:25 | 47.77212 | -0.85588 | 19904 ft | 308 kts | 219° |
| 2026-05-07 15:25 | 47.75567 | -0.87605 | 19534 ft | 306 kts | 219° |
| 2026-05-07 15:25 | 47.73924 | -0.89617 | 19159 ft | 305 kts | 218° |
| 2026-05-07 15:26 | 47.72287 | -0.91620 | 18776 ft | 305 kts | 218° |
| 2026-05-07 15:26 | 47.70643 | -0.93621 | 18380 ft | 305 kts | 218° |
| 2026-05-07 15:26 | 47.69000 | -0.95614 | 17950 ft | 305 kts | 218° |
| 2026-05-07 15:26 | 47.67361 | -0.97606 | 17556 ft | 304 kts | 218° |
| 2026-05-07 15:27 | 47.65759 | -0.99557 | 17177 ft | 302 kts | 218° |
| 2026-05-07 15:27 | 47.64136 | -1.01530 | 16796 ft | 301 kts | 218° |
| 2026-05-07 15:27 | 47.62517 | -1.03493 | 16418 ft | 300 kts | 218° |
| 2026-05-07 15:27 | 47.60904 | -1.05449 | 16044 ft | 299 kts | 219° |
| 2026-05-07 15:28 | 47.59295 | -1.07401 | 15676 ft | 299 kts | 219° |
| 2026-05-07 15:28 | 47.57688 | -1.09343 | 15311 ft | 298 kts | 219° |
| 2026-05-07 15:28 | 47.56081 | -1.11284 | 14947 ft | 298 kts | 219° |
| 2026-05-07 15:28 | 47.54490 | -1.13247 | 14560 ft | 298 kts | 220° |
| 2026-05-07 15:29 | 47.52909 | -1.15241 | 14174 ft | 299 kts | 220° |
| 2026-05-07 15:29 | 47.51350 | -1.17222 | 13792 ft | 300 kts | 221° |
| 2026-05-07 15:29 | 47.49770 | -1.19232 | 13368 ft | 299 kts | 221° |
| 2026-05-07 15:29 | 47.48172 | -1.21262 | 12969 ft | 298 kts | 221° |
| 2026-05-07 15:30 | 47.46620 | -1.23226 | 12590 ft | 297 kts | 220° |
| 2026-05-07 15:30 | 47.45048 | -1.25212 | 12210 ft | 297 kts | 221° |
| 2026-05-07 15:30 | 47.43592 | -1.27348 | 11848 ft | 294 kts | 232° |
| 2026-05-07 15:30 | 47.42363 | -1.29724 | 11635 ft | 289 kts | 232° |
| 2026-05-07 15:31 | 47.41140 | -1.32058 | 11404 ft | 286 kts | 232° |
| 2026-05-07 15:31 | 47.39919 | -1.34372 | 11152 ft | 285 kts | 232° |
| 2026-05-07 15:31 | 47.38701 | -1.36678 | 10927 ft | 284 kts | 232° |
| 2026-05-07 15:31 | 47.37486 | -1.38977 | 10691 ft | 283 kts | 232° |
| 2026-05-07 15:32 | 47.36275 | -1.41267 | 10454 ft | 283 kts | 232° |
| 2026-05-07 15:32 | 47.35069 | -1.43550 | 10214 ft | 282 kts | 232° |
| 2026-05-07 15:32 | 47.33867 | -1.45825 | 9982 ft | 280 kts | 232° |
| 2026-05-07 15:32 | 47.32674 | -1.48080 | 9737 ft | 279 kts | 231° |
| 2026-05-07 15:33 | 47.31483 | -1.50328 | 9497 ft | 278 kts | 231° |
| 2026-05-07 15:33 | 47.30295 | -1.52568 | 9266 ft | 277 kts | 231° |
| 2026-05-07 15:33 | 47.29109 | -1.54805 | 9024 ft | 276 kts | 231° |
| 2026-05-07 15:33 | 47.27927 | -1.57032 | 8800 ft | 276 kts | 231° |
| 2026-05-07 15:34 | 47.26747 | -1.59255 | 8566 ft | 275 kts | 231° |
| 2026-05-07 15:34 | 47.25572 | -1.61472 | 8340 ft | 275 kts | 231° |
| 2026-05-07 15:34 | 47.24399 | -1.63681 | 8112 ft | 274 kts | 231° |
| 2026-05-07 15:34 | 47.23604 | -1.65174 | 7955 ft | 274 kts | 230° |
| 2026-05-07 15:35 | 47.22431 | -1.67376 | 7749 ft | 270 kts | 230° |
| 2026-05-07 15:35 | 47.21290 | -1.69519 | 7617 ft | 262 kts | 230° |
| 2026-05-07 15:35 | 47.20188 | -1.71592 | 7486 ft | 252 kts | 230° |
| 2026-05-07 15:35 | 47.18988 | -1.73372 | 7292 ft | 243 kts | 214° |
| 2026-05-07 15:36 | 47.17512 | -1.74555 | 7208 ft | 237 kts | 203° |
| 2026-05-07 15:36 | 47.16011 | -1.75572 | 7053 ft | 238 kts | 203° |
| 2026-05-07 15:36 | 47.14515 | -1.76596 | 6869 ft | 237 kts | 203° |
| 2026-05-07 15:36 | 47.13020 | -1.77622 | 6693 ft | 237 kts | 203° |
| 2026-05-07 15:37 | 47.11546 | -1.78640 | 6506 ft | 237 kts | 203° |
| 2026-05-07 15:37 | 47.10055 | -1.79667 | 6316 ft | 237 kts | 203° |
| 2026-05-07 15:37 | 47.08562 | -1.80693 | 6122 ft | 237 kts | 203° |
| 2026-05-07 15:37 | 47.07072 | -1.81715 | 5936 ft | 236 kts | 203° |
| 2026-05-07 15:38 | 47.05584 | -1.82734 | 5748 ft | 236 kts | 203° |
| 2026-05-07 15:38 | 47.04117 | -1.83739 | 5567 ft | 235 kts | 203° |
| 2026-05-07 15:38 | 47.02638 | -1.84751 | 5378 ft | 234 kts | 203° |
| 2026-05-07 15:38 | 47.01162 | -1.85758 | 5222 ft | 234 kts | 203° |
| 2026-05-07 15:39 | 46.99681 | -1.86717 | 5045 ft | 232 kts | 195° |
| 2026-05-07 15:39 | 46.98106 | -1.86816 | 4865 ft | 227 kts | 163° |
| 2026-05-07 15:39 | 46.96749 | -1.85720 | 4665 ft | 224 kts | 134° |
| 2026-05-07 15:39 | 46.95902 | -1.83818 | 4457 ft | 225 kts | 117° |
| 2026-05-07 15:40 | 46.95186 | -1.81782 | 4252 ft | 225 kts | 118° |
| 2026-05-07 15:40 | 46.94616 | -1.79668 | 4052 ft | 225 kts | 97° |
| 2026-05-07 15:40 | 46.94859 | -1.77429 | 3854 ft | 228 kts | 64° |
| 2026-05-07 15:40 | 46.95925 | -1.75774 | 3660 ft | 229 kts | 29° |
| 2026-05-07 15:41 | 46.97384 | -1.74894 | 3476 ft | 226 kts | 25° |
| 2026-05-07 15:41 | 46.98796 | -1.73890 | 3288 ft | 225 kts | 30° |
| 2026-05-07 15:41 | 47.00166 | -1.72806 | 3097 ft | 222 kts | 31° |
| 2026-05-07 15:41 | 47.01499 | -1.71732 | 2883 ft | 217 kts | 30° |
| 2026-05-07 15:42 | 47.02826 | -1.70675 | 2580 ft | 218 kts | 29° |
| 2026-05-07 15:42 | 47.04137 | -1.69645 | 2403 ft | 209 kts | 29° |
| 2026-05-07 15:42 | 47.05416 | -1.68653 | 2028 ft | 204 kts | 28° |
| 2026-05-07 15:42 | 47.06642 | -1.67711 | 1744 ft | 194 kts | 27° |
| 2026-05-07 15:43 | 47.07801 | -1.66824 | 1478 ft | 181 kts | 27° |
| 2026-05-07 15:43 | 47.08873 | -1.66001 | 1258 ft | 168 kts | 27° |
| 2026-05-07 15:43 | 47.09873 | -1.65235 | 1036 ft | 157 kts | 27° |
| 2026-05-07 15:43 | 47.10830 | -1.64507 | 790 ft | 152 kts | 28° |
| 2026-05-07 15:44 | 47.11757 | -1.63790 | 610 ft | 150 kts | 30° |
| 2026-05-07 15:44 | 47.12678 | -1.63077 | 398 ft | 149 kts | 29° |
| 2026-05-07 15:44 | 47.13598 | -1.62380 | 231 ft | 149 kts | 30° |
| 2026-05-07 15:44 | 47.14502 | -1.61698 | 96 ft | 140 kts | 30° |
| 2026-05-07 15:45 | 47.15209 | -1.61155 | 87 ft | 91 kts | 27° |
| 2026-05-07 15:45 | 47.15686 | -1.60793 | 86 ft | 53 kts | 28° |
| 2026-05-07 15:45 | 47.15837 | -1.60628 | 83 ft | 19 kts | 81° |
| 2026-05-07 15:45 | 47.15810 | -1.60522 | 87 ft | 6 kts | 127° |
| 2026-05-07 15:46 | 47.15789 | -1.60491 | 85 ft | 9 kts | 139° |
| 2026-05-07 15:46 | 47.15731 | -1.60428 | 85 ft | 9 kts | 145° |
| 2026-05-07 15:46 | 47.15688 | -1.60385 | 87 ft | 5 kts | 144° |
| 2026-05-07 15:47 | 47.15674 | -1.60362 | 88 ft | 6 kts | 123° |
| 2026-05-07 15:47 | 47.15695 | -1.60294 | 86 ft | 4 kts | 43° |
| 2026-05-07 15:47 | 47.15706 | -1.60280 | 85 ft | 2 kts | 45° |
| 2026-05-07 15:47 | 47.15716 | -1.60264 | 87 ft | 0 kts | 44° |